Time;durP1;ratioP1;P1;durP2;ratioP2;P2;SDS_P1;SDS_P2;PMS_P1;PMS_P2;Temp;Humidity;BMP_temperature;BMP_pressure;BME280_temperature;BME280_humidity;BME280_pressure;Samples;Min_cycle;Max_cycle;Signal;HPM_P1;HPM_P2
2023/04/25 00:02:20;;;;;;;16.63;5.30;;;7.10;31.50;;;;;;5029788;28;20259;-76
2023/04/25 00:04:48;;;;;;;14.27;4.63;;;7.10;11.60;;;;;;5031667;28;20196;-76
2023/04/25 00:07:14;;;;;;;18.87;5.97;;;7.10;24.90;;;;;;5031748;28;20260;-76
2023/04/25 00:09:39;;;;;;;11.77;4.83;;;7.10;60.90;;;;;;5031704;28;20234;-76
2023/04/25 00:12:05;;;;;;;15.37;4.60;;;7.10;7.00;;;;;;5031474;28;20198;-75
2023/04/25 00:14:33;;;;;;;14.80;5.00;;;7.20;4.20;;;;;;5031409;28;20667;-76
2023/04/25 00:16:59;;;;;;;19.10;4.13;;;7.20;1.00;;;;;;5030254;28;20169;-76
2023/04/25 00:19:26;;;;;;;12.60;4.07;;;7.20;23.30;;;;;;5031741;28;20644;-76
2023/04/25 00:21:53;;;;;;;10.70;4.33;;;7.20;21.40;;;;;;5031500;28;20640;-76
2023/04/25 00:24:19;;;;;;;13.17;4.10;;;7.10;3.90;;;;;;5031489;28;20168;-76
2023/04/25 00:26:44;;;;;;;10.17;3.43;;;7.10;13.30;;;;;;5030036;28;20287;-76
2023/04/25 00:29:10;;;;;;;7.87;3.77;;;7.20;27.10;;;;;;5030022;28;20259;-76
2023/04/25 00:31:36;;;;;;;9.70;4.23;;;7.20;34.90;;;;;;5030241;28;20183;-76
2023/04/25 00:34:01;;;;;;;12.43;5.07;;;7.20;6.50;;;;;;5029999;28;20172;-76
2023/04/25 00:36:27;;;;;;;8.83;3.77;;;7.20;13.00;;;;;;5029844;28;20216;-76
2023/04/25 00:38:54;;;;;;;8.73;3.90;;;7.30;23.00;;;;;;5031233;28;20643;-76
2023/04/25 00:41:20;;;;;;;10.73;4.17;;;7.20;32.80;;;;;;5031201;28;20171;-76
2023/04/25 00:43:47;;;;;;;8.33;4.03;;;7.20;19.80;;;;;;5029860;28;20176;-76
2023/04/25 00:46:13;;;;;;;7.27;3.30;;;7.30;16.10;;;;;;5031101;28;20189;-76
2023/04/25 00:48:38;;;;;;;7.33;4.10;;;7.30;1.00;;;;;;5031079;28;20272;-76
2023/04/25 00:51:04;;;;;;;12.73;3.70;;;7.30;28.10;;;;;;5031288;28;20200;-76
2023/04/25 00:53:31;;;;;;;9.27;4.20;;;7.30;14.80;;;;;;5031172;28;20175;-76
2023/04/25 00:55:57;;;;;;;14.53;4.60;;;7.30;27.80;;;;;;5029330;28;20261;-76
2023/04/25 00:58:23;;;;;;;12.80;4.83;;;7.30;26.20;;;;;;5030629;28;20585;-74
2023/04/25 01:00:50;;;;;;;12.40;3.87;;;7.30;26.70;;;;;;5029889;28;20179;-74
2023/04/25 01:03:17;;;;;;;10.23;3.60;;;7.30;23.40;;;;;;5030935;28;20172;-75
2023/04/25 01:05:43;;;;;;;8.60;3.47;;;7.30;46.10;;;;;;5029565;28;20288;-75
2023/04/25 01:08:09;;;;;;;12.03;4.30;;;7.30;90.40;;;;;;5030800;28;20187;-74
2023/04/25 01:10:35;;;;;;;9.50;3.53;;;7.30;20.50;;;;;;5030744;28;20180;-74
2023/04/25 01:13:01;;;;;;;7.20;3.13;;;7.30;39.30;;;;;;5030819;28;20192;-75
2023/04/25 01:15:26;;;;;;;15.20;4.00;;;7.30;39.40;;;;;;5030731;28;20581;-74
2023/04/25 01:17:52;;;;;;;10.73;3.83;;;7.30;87.70;;;;;;5030777;28;20176;-74
2023/04/25 01:20:22;;;;;;;13.83;5.53;;;7.30;91.00;;;;;;5030161;28;20201;-75
2023/04/25 01:22:47;;;;;;;11.97;5.17;;;7.30;57.20;;;;;;5030658;28;20168;-75
2023/04/25 01:25:14;;;;;;;11.60;5.47;;;7.40;19.40;;;;;;5030673;28;20539;-75
2023/04/25 01:27:40;;;;;;;14.97;5.90;;;7.40;23.90;;;;;;5030897;28;20674;-75
2023/04/25 01:30:06;;;;;;;12.13;5.77;;;7.40;49.80;;;;;;5030514;28;20547;-74
2023/04/25 01:32:38;;;;;;;12.43;6.33;;;7.40;54.00;;;;;;5030627;28;20211;-75
2023/04/25 01:35:09;;;;;;;11.07;5.73;;;7.40;65.00;;;;;;5030637;28;20290;-75
2023/04/25 01:37:37;;;;;;;12.53;4.77;;;7.40;97.20;;;;;;5029581;28;20562;-75
2023/04/25 01:40:05;;;;;;;12.90;5.17;;;7.40;61.80;;;;;;5029692;28;20173;-75
2023/04/25 01:42:31;;;;;;;11.33;4.77;;;7.40;50.10;;;;;;5030653;28;20177;-75
2023/04/25 01:44:57;;;;;;;12.73;5.37;;;7.40;52.70;;;;;;5030321;28;20561;-75
2023/04/25 01:47:22;;;;;;;10.03;4.73;;;7.40;84.80;;;;;;5030347;28;20172;-74
2023/04/25 01:49:48;;;;;;;10.40;5.37;;;7.40;41.10;;;;;;5030520;28;20181;-75
2023/04/25 01:52:13;;;;;;;15.60;5.50;;;7.40;56.60;;;;;;5030369;28;20225;-75
2023/04/25 01:54:43;;;;;;;10.87;4.10;;;7.40;98.80;;;;;;5030008;28;20204;-75
2023/04/25 01:57:09;;;;;;;12.00;5.00;;;7.40;69.20;;;;;;5030159;28;20203;-75
2023/04/25 01:59:35;;;;;;;11.70;3.93;;;7.40;94.60;;;;;;5030182;28;20188;-74
2023/04/25 02:02:03;;;;;;;9.60;3.80;;;7.40;99.90;;;;;;5029944;28;20651;-75
2023/04/25 02:04:32;;;;;;;13.27;4.77;;;7.40;97.80;;;;;;5028733;28;20196;-77
2023/04/25 02:06:57;;;;;;;11.30;3.70;;;7.40;99.90;;;;;;5028785;28;20551;-75
2023/04/25 02:09:23;;;;;;;9.13;3.90;;;7.40;99.90;;;;;;5027427;28;20182;-74
2023/04/25 02:11:49;;;;;;;9.07;3.47;;;7.40;99.90;;;;;;5030030;28;20223;-74
2023/04/25 02:14:14;;;;;;;6.23;3.37;;;7.40;99.90;;;;;;5030243;28;20160;-74
2023/04/25 02:16:40;;;;;;;9.90;3.83;;;7.40;99.90;;;;;;5030011;28;20287;-74
2023/04/25 02:19:06;;;;;;;7.70;3.67;;;7.40;99.90;;;;;;5028418;28;20631;-75
2023/04/25 02:21:32;;;;;;;13.73;4.80;;;7.30;99.90;;;;;;5029944;28;20178;-75
2023/04/25 02:23:58;;;;;;;7.03;3.47;;;7.40;97.20;;;;;;5028470;28;20172;-75
2023/04/25 02:26:24;;;;;;;10.27;3.73;;;7.30;99.90;;;;;;5028155;28;20192;-75
2023/04/25 02:28:50;;;;;;;7.17;3.50;;;7.30;99.90;;;;;;5029701;28;20184;-76
2023/04/25 02:31:16;;;;;;;15.80;4.20;;;7.30;99.90;;;;;;5029468;28;20258;-75
2023/04/25 02:33:41;;;;;;;6.50;3.10;;;7.30;99.90;;;;;;5029756;28;20212;-74
2023/04/25 02:36:07;;;;;;;7.67;3.43;;;7.30;99.90;;;;;;5029802;28;20239;-74
2023/04/25 02:38:33;;;;;;;6.83;3.30;;;7.30;99.90;;;;;;5029380;28;20175;-74
2023/04/25 02:40:59;;;;;;;11.30;3.50;;;7.40;99.90;;;;;;5029499;28;20203;-75
2023/04/25 02:43:24;;;;;;;10.17;3.80;;;7.30;99.90;;;;;;5029558;28;20173;-75
2023/04/25 02:45:50;;;;;;;8.83;3.40;;;7.20;99.90;;;;;;5027978;28;20207;-75
2023/04/25 02:48:15;;;;;;;11.97;3.73;;;7.20;99.90;;;;;;5029358;28;20189;-75
2023/04/25 02:50:41;;;;;;;6.43;3.23;;;7.20;99.90;;;;;;5028242;28;20655;-75
2023/04/25 02:53:06;;;;;;;12.40;3.13;;;7.20;99.90;;;;;;5029500;28;20644;-75
2023/04/25 02:55:32;;;;;;;10.73;3.43;;;7.20;99.90;;;;;;5029053;28;20200;-75
2023/04/25 02:57:57;;;;;;;10.33;2.90;;;7.20;99.90;;;;;;5029232;28;20168;-74
2023/04/25 03:00:23;;;;;;;10.50;3.37;;;7.20;99.90;;;;;;5029157;28;20164;-74
2023/04/25 03:02:48;;;;;;;8.63;3.70;;;7.10;99.90;;;;;;5027806;28;20175;-74
2023/04/25 03:05:14;;;;;;;14.43;3.93;;;7.10;99.90;;;;;;5029319;28;20232;-74
2023/04/25 03:07:40;;;;;;;8.57;2.80;;;7.10;99.90;;;;;;5027749;28;20651;-75
2023/04/25 03:10:09;;;;;;;12.53;3.70;;;7.10;99.90;;;;;;5029026;28;20168;-74
2023/04/25 03:12:34;;;;;;;10.27;3.37;;;7.10;99.90;;;;;;5028971;28;20559;-75
2023/04/25 03:15:00;;;;;;;10.00;3.13;;;7.00;99.90;;;;;;5028789;28;20269;-74
2023/04/25 03:17:25;;;;;;;8.67;3.43;;;7.00;99.90;;;;;;5029179;28;20613;-74
2023/04/25 03:19:51;;;;;;;10.83;3.70;;;7.00;99.90;;;;;;5029754;28;20163;-74
2023/04/25 03:22:16;;;;;;;14.13;3.80;;;7.00;99.90;;;;;;5031047;28;20178;-75
2023/04/25 03:24:42;;;;;;;8.83;3.50;;;6.90;99.90;;;;;;5032317;28;20195;-75
2023/04/25 03:27:07;;;;;;;11.50;3.43;;;6.90;99.90;;;;;;5032376;28;20168;-75
2023/04/25 03:29:33;;;;;;;13.77;3.93;;;6.90;99.90;;;;;;5031033;28;20554;-74
2023/04/25 03:31:58;;;;;;;11.23;3.80;;;6.90;99.90;;;;;;5031336;28;20267;-74
2023/04/25 03:34:24;;;;;;;12.43;3.20;;;6.90;99.90;;;;;;5032301;28;20248;-74
2023/04/25 03:36:49;;;;;;;10.73;4.07;;;6.90;99.90;;;;;;5030814;28;20223;-74
2023/04/25 03:39:15;;;;;;;14.23;4.10;;;6.90;99.90;;;;;;5032589;28;20185;-74
2023/04/25 03:41:41;;;;;;;12.27;3.60;;;6.90;99.90;;;;;;5032098;28;20179;-74
2023/04/25 03:44:06;;;;;;;8.33;3.73;;;6.90;99.90;;;;;;5032243;28;20169;-74
2023/04/25 03:46:32;;;;;;;8.70;3.67;;;6.80;99.90;;;;;;5030728;28;20731;-75
2023/04/25 03:48:59;;;;;;;12.27;3.70;;;6.90;99.90;;;;;;5032065;28;20168;-74
2023/04/25 03:51:25;;;;;;;19.53;4.30;;;6.80;99.90;;;;;;5031981;28;20172;-74
2023/04/25 03:53:52;;;;;;;12.13;4.00;;;6.80;99.90;;;;;;5030641;28;20647;-75
2023/04/25 03:56:18;;;;;;;13.43;3.67;;;6.80;99.90;;;;;;5030444;28;20207;-74
2023/04/25 03:58:44;;;;;;;11.83;4.00;;;6.70;99.90;;;;;;5032308;28;20266;-75
2023/04/25 04:01:10;;;;;;;16.43;4.23;;;6.80;99.90;;;;;;5032052;28;20242;-75
2023/04/25 04:03:35;;;;;;;11.27;3.93;;;6.70;99.90;;;;;;5031739;28;20251;-75
2023/04/25 04:06:04;;;;;;;12.40;3.77;;;6.70;99.90;;;;;;5031781;28;20283;-74
2023/04/25 04:08:30;;;;;;;15.27;3.90;;;6.70;99.90;;;;;;5032011;28;20260;-75
2023/04/25 04:10:56;;;;;;;10.47;3.70;;;6.70;99.90;;;;;;5031687;28;20724;-74
2023/04/25 04:13:22;;;;;;;10.90;4.33;;;6.70;99.90;;;;;;5031568;28;20249;-74
2023/04/25 04:15:47;;;;;;;14.57;4.63;;;6.70;99.90;;;;;;5030140;28;20204;-74
2023/04/25 04:18:13;;;;;;;13.30;4.07;;;6.70;99.90;;;;;;5031734;28;20519;-74
2023/04/25 04:20:38;;;;;;;16.80;4.40;;;6.70;99.90;;;;;;5031697;28;20173;-74
2023/04/25 04:23:05;;;;;;;12.67;4.47;;;6.60;99.90;;;;;;5030097;28;20714;-75
2023/04/25 04:25:30;;;;;;;12.77;3.90;;;6.60;99.90;;;;;;5031909;28;20287;-74
2023/04/25 04:27:57;;;;;;;14.47;4.40;;;6.60;99.90;;;;;;5031445;28;20204;-74
2023/04/25 04:30:29;;;;;;;18.63;4.80;;;6.50;99.90;;;;;;5030277;28;20188;-74
2023/04/25 04:32:55;;;;;;;9.57;4.20;;;6.50;99.90;;;;;;5029088;28;20210;-74
2023/04/25 04:35:21;;;;;;;10.60;4.03;;;6.50;99.90;;;;;;5031220;28;20207;-74
2023/04/25 04:37:47;;;;;;;15.23;4.37;;;6.50;99.90;;;;;;5029938;28;20287;-75
2023/04/25 04:40:15;;;;;;;11.83;4.03;;;6.50;99.90;;;;;;5031421;28;20265;-75
2023/04/25 04:42:41;;;;;;;16.50;4.57;;;6.50;99.90;;;;;;5029976;28;20237;-75
2023/04/25 04:45:08;;;;;;;17.87;4.60;;;6.40;99.90;;;;;;5031143;28;20200;-75
2023/04/25 04:47:33;;;;;;;16.33;4.83;;;6.40;99.90;;;;;;5029849;28;20214;-74
2023/04/25 04:49:59;;;;;;;10.50;3.73;;;6.40;99.90;;;;;;5029824;28;20188;-74
2023/04/25 04:52:25;;;;;;;15.83;4.33;;;6.40;99.90;;;;;;5029776;28;20615;-74
2023/04/25 04:54:50;;;;;;;9.93;3.70;;;6.40;99.90;;;;;;5029613;28;20212;-75
2023/04/25 04:57:19;;;;;;;9.73;3.80;;;6.40;99.90;;;;;;5031141;28;20703;-75
2023/04/25 04:59:44;;;;;;;12.47;4.30;;;6.40;99.90;;;;;;5031154;28;20543;-75
2023/04/25 05:02:10;;;;;;;17.17;3.90;;;6.40;99.90;;;;;;5030956;28;20187;-75
2023/04/25 05:04:35;;;;;;;10.40;3.77;;;6.40;99.90;;;;;;5029592;28;20232;-75
2023/04/25 05:07:01;;;;;;;16.57;3.80;;;6.30;99.90;;;;;;5031155;28;20558;-75
2023/04/25 05:09:27;;;;;;;15.27;3.90;;;6.30;99.90;;;;;;5030896;28;20184;-75
2023/04/25 05:11:52;;;;;;;10.90;3.90;;;6.30;99.90;;;;;;5030929;28;20213;-76
2023/04/25 05:14:18;;;;;;;12.80;4.30;;;6.30;99.90;;;;;;5030954;28;20191;-76
2023/04/25 05:16:43;;;;;;;20.57;5.17;;;6.30;99.90;;;;;;5030612;28;20205;-75
2023/04/25 05:19:09;;;;;;;11.13;3.97;;;6.30;99.90;;;;;;5030870;28;20172;-75
2023/04/25 05:21:35;;;;;;;12.27;4.10;;;6.30;99.90;;;;;;5030681;28;20576;-75
2023/04/25 05:24:01;;;;;;;14.87;4.50;;;6.30;99.90;;;;;;5030702;28;20164;-74
2023/04/25 05:26:30;;;;;;;18.40;4.00;;;6.30;99.90;;;;;;5030539;28;20736;-75
2023/04/25 05:28:56;;;;;;;13.00;3.60;;;6.30;99.90;;;;;;5030494;28;20169;-76
2023/04/25 05:31:22;;;;;;;14.77;4.17;;;6.30;99.90;;;;;;5030447;28;20176;-75
2023/04/25 05:33:47;;;;;;;11.83;3.90;;;6.30;99.90;;;;;;5030699;28;20177;-75
2023/04/25 05:36:13;;;;;;;10.23;3.50;;;6.30;99.90;;;;;;5028945;28;20307;-75
2023/04/25 05:38:38;;;;;;;13.40;4.40;;;6.30;99.90;;;;;;5030266;28;20183;-75
2023/04/25 05:41:04;;;;;;;10.73;3.47;;;6.40;99.90;;;;;;5029056;28;20209;-75
2023/04/25 05:43:30;;;;;;;12.80;3.47;;;6.40;99.90;;;;;;5029934;28;20179;-75
2023/04/25 05:45:56;;;;;;;20.07;4.70;;;6.40;99.90;;;;;;5029081;28;20219;-74
2023/04/25 05:48:21;;;;;;;18.07;4.40;;;6.50;99.90;;;;;;5030455;28;20187;-75
2023/04/25 05:50:47;;;;;;;7.00;3.87;;;6.50;99.90;;;;;;5030373;28;20253;-75
2023/04/25 05:53:12;;;;;;;13.87;4.50;;;6.50;99.90;;;;;;5030274;28;20186;-75
2023/04/25 05:55:38;;;;;;;12.27;3.80;;;6.50;99.90;;;;;;5029895;28;20301;-75
2023/04/25 05:58:06;;;;;;;15.13;4.23;;;6.50;99.90;;;;;;5029963;28;20676;-74
2023/04/25 06:00:31;;;;;;;12.63;4.23;;;6.60;99.90;;;;;;5029268;28;20173;-75
2023/04/25 06:02:57;;;;;;;12.27;4.13;;;6.60;99.90;;;;;;5028402;28;20250;-75
2023/04/25 06:05:22;;;;;;;17.03;4.50;;;6.60;99.90;;;;;;5028520;28;20195;-74
2023/04/25 06:07:48;;;;;;;17.10;5.23;;;6.70;99.90;;;;;;5030073;28;20687;-75
2023/04/25 06:10:14;;;;;;;10.40;4.17;;;6.70;99.90;;;;;;5029869;28;20678;-74
2023/04/25 06:12:40;;;;;;;13.13;4.97;;;6.80;99.90;;;;;;5029669;28;20180;-75
2023/04/25 06:15:06;;;;;;;12.10;3.73;;;6.80;99.90;;;;;;5028361;28;20215;-74
2023/04/25 06:17:32;;;;;;;14.03;4.60;;;6.80;1.00;;;;;;5029768;28;20173;-75
2023/04/25 06:19:58;;;;;;;14.70;4.43;;;6.80;9.20;;;;;;5030173;28;20254;-75
2023/04/25 06:22:23;;;;;;;15.67;3.73;;;6.90;51.40;;;;;;5029601;28;20196;-76
2023/04/25 06:24:49;;;;;;;13.83;3.70;;;6.90;1.00;;;;;;5029525;28;20192;-75
2023/04/25 06:27:15;;;;;;;14.10;3.53;;;7.50;1.00;;;;;;5029597;28;20176;-75
2023/04/25 06:29:40;;;;;;;11.23;3.90;;;7.00;1.00;;;;;;5028180;28;20180;-75
2023/04/25 06:32:06;;;;;;;11.33;3.80;;;7.00;1.00;;;;;;5029785;28;20180;-75
2023/04/25 06:34:31;;;;;;;10.77;4.00;;;7.00;1.00;;;;;;5028062;28;20278;-75
2023/04/25 06:36:57;;;;;;;17.30;3.80;;;7.10;99.90;;;;;;5028203;28;20198;-75
2023/04/25 06:39:24;;;;;;;14.50;3.50;;;7.10;99.90;;;;;;5029457;28;20177;-75
2023/04/25 06:41:50;;;;;;;9.50;3.57;;;7.10;1.00;;;;;;5029918;28;20169;-75
2023/04/25 06:44:15;;;;;;;13.37;3.47;;;7.10;6.50;;;;;;5028090;28;20173;-75
2023/04/25 06:46:41;;;;;;;13.07;3.80;;;7.20;1.00;;;;;;5028012;28;20211;-75
2023/04/25 06:49:06;;;;;;;13.67;3.50;;;7.30;1.00;;;;;;5028834;28;20184;-75
2023/04/25 06:51:32;;;;;;;12.07;3.60;;;7.30;1.00;;;;;;5028228;28;20647;-75
2023/04/25 06:53:57;;;;;;;6.50;2.67;;;7.30;99.90;;;;;;5028316;28;20263;-75
2023/04/25 06:56:23;;;;;;;10.23;2.83;;;7.30;1.00;;;;;;5031006;28;20302;-75
2023/04/25 06:58:49;;;;;;;13.53;3.33;;;7.40;1.00;;;;;;5032835;28;20176;-76
2023/04/25 07:01:15;;;;;;;13.00;3.30;;;7.40;99.90;;;;;;5031636;28;20253;-75
2023/04/25 07:03:41;;;;;;;9.87;3.13;;;7.40;1.00;;;;;;5031628;28;20194;-75
2023/04/25 07:06:07;;;;;;;19.93;4.13;;;7.40;1.00;;;;;;5032685;28;20210;-73
2023/04/25 07:08:32;;;;;;;14.93;3.93;;;7.40;99.90;;;;;;5032622;28;20180;-74
2023/04/25 07:10:58;;;;;;;11.67;3.37;;;7.40;1.00;;;;;;5032618;28;20184;-74
2023/04/25 07:13:23;;;;;;;10.80;3.53;;;7.40;99.90;;;;;;5032442;28;20188;-74
2023/04/25 07:15:49;;;;;;;15.83;4.30;;;7.50;1.00;;;;;;5031036;28;20219;-74
2023/04/25 07:18:15;;;;;;;16.23;4.30;;;7.60;1.00;;;;;;5031122;28;20615;-73
2023/04/25 07:20:40;;;;;;;14.63;3.10;;;7.60;48.30;;;;;;5032389;28;20184;-74
2023/04/25 07:23:06;;;;;;;10.53;3.40;;;7.70;99.90;;;;;;5031106;28;20188;-73
2023/04/25 07:25:32;;;;;;;12.90;3.13;;;7.70;99.90;;;;;;5032332;28;20196;-74
2023/04/25 07:27:57;;;;;;;13.67;2.87;;;7.70;99.90;;;;;;5032325;28;20181;-74
2023/04/25 07:30:23;;;;;;;8.30;2.97;;;7.80;99.90;;;;;;5032312;28;20183;-74
2023/04/25 07:32:49;;;;;;;15.83;3.10;;;7.90;99.90;;;;;;5032282;28;20176;-74
2023/04/25 07:35:16;;;;;;;15.00;3.27;;;7.90;19.50;;;;;;5032142;28;20291;-74
2023/04/25 07:37:41;;;;;;;12.43;4.10;;;8.00;1.00;;;;;;5031091;28;20533;-74
2023/04/25 07:40:09;;;;;;;12.83;3.30;;;8.00;1.00;;;;;;5030899;28;20249;-74
2023/04/25 07:42:34;;;;;;;7.53;3.13;;;8.00;58.60;;;;;;5030785;28;20183;-74
2023/04/25 07:45:01;;;;;;;14.87;4.30;;;8.00;1.00;;;;;;5032086;28;20201;-74
2023/04/25 07:47:26;;;;;;;14.33;4.13;;;8.10;56.20;;;;;;5032066;28;20663;-74
2023/04/25 07:49:52;;;;;;;11.53;4.70;;;8.10;99.90;;;;;;5032022;28;20196;-74
2023/04/25 07:52:17;;;;;;;17.87;4.97;;;8.30;1.00;;;;;;5031977;28;20248;-74
2023/04/25 07:54:43;;;;;;;18.00;4.87;;;8.30;99.90;;;;;;5031794;28;20215;-74
2023/04/25 07:57:09;;;;;;;15.23;4.83;;;8.40;1.00;;;;;;5030596;28;20169;-73
2023/04/25 07:59:34;;;;;;;13.90;4.00;;;8.60;99.90;;;;;;5031992;28;20176;-74
2023/04/25 08:02:01;;;;;;;12.27;3.53;;;8.60;1.00;;;;;;5031854;28;20293;-74
2023/04/25 08:04:26;;;;;;;16.87;3.40;;;8.60;1.00;;;;;;5030434;28;20176;-74
2023/04/25 08:06:53;;;;;;;10.67;3.97;;;8.60;99.90;;;;;;5030727;28;20172;-74
2023/04/25 08:09:19;;;;;;;15.90;4.33;;;8.60;99.90;;;;;;5031704;28;20255;-74
2023/04/25 08:11:45;;;;;;;14.87;3.83;;;8.70;99.90;;;;;;5031783;28;20271;-74
2023/04/25 08:14:11;;;;;;;19.67;4.87;;;8.80;93.10;;;;;;5032067;28;20164;-74
2023/04/25 08:16:37;;;;;;;12.50;2.90;;;8.90;1.00;;;;;;5030186;28;20209;-74
2023/04/25 08:19:03;;;;;;;7.77;2.50;;;8.90;99.90;;;;;;5031793;28;20183;-74
2023/04/25 08:21:28;;;;;;;10.17;2.70;;;8.90;1.00;;;;;;5031768;28;20169;-74
2023/04/25 08:23:54;;;;;;;8.77;3.13;;;8.80;1.00;;;;;;5030276;28;20226;-74
2023/04/25 08:26:20;;;;;;;7.60;2.17;;;8.80;99.90;;;;;;5031468;28;20203;-74
2023/04/25 08:28:46;;;;;;;11.37;2.57;;;8.70;99.90;;;;;;5031582;28;20547;-74
2023/04/25 08:31:11;;;;;;;12.57;2.40;;;8.70;1.00;;;;;;5030178;28;20263;-74
2023/04/25 08:33:37;;;;;;;11.83;2.77;;;8.70;1.00;;;;;;5030119;28;20275;-74
2023/04/25 08:36:03;;;;;;;10.83;2.93;;;8.60;1.00;;;;;;5031405;28;20240;-74
2023/04/25 08:38:28;;;;;;;12.57;2.97;;;8.80;1.00;;;;;;5031496;28;20173;-74
2023/04/25 08:40:55;;;;;;;10.47;3.10;;;8.90;1.00;;;;;;5031524;28;20197;-74
2023/04/25 08:43:20;;;;;;;10.90;3.07;;;9.00;99.90;;;;;;5031392;28;20255;-74
2023/04/25 08:45:47;;;;;;;6.27;2.10;;;9.00;1.00;;;;;;5031237;28;20283;-74
2023/04/25 08:48:14;;;;;;;7.10;2.70;;;9.20;99.90;;;;;;5031167;28;20263;-74
2023/04/25 08:50:45;;;;;;;4.70;1.90;;;9.30;99.90;;;;;;5031470;28;20172;-74
2023/04/25 08:53:16;;;;;;;8.30;1.97;;;9.40;99.90;;;;;;5031367;28;20156;-74
2023/04/25 08:55:42;;;;;;;8.30;2.10;;;9.40;1.00;;;;;;5031099;28;20280;-74
2023/04/25 08:58:10;;;;;;;8.63;2.47;;;9.50;1.00;;;;;;5031181;28;20179;-74
2023/04/25 09:00:36;;;;;;;8.87;2.47;;;9.60;1.00;;;;;;5030911;28;20168;-74
2023/04/25 09:03:02;;;;;;;7.50;1.90;;;9.60;99.90;;;;;;5029630;28;20640;-74
2023/04/25 09:05:29;;;;;;;9.40;1.97;;;9.50;1.00;;;;;;5030987;28;20211;-74
2023/04/25 09:07:56;;;;;;;10.47;2.40;;;9.50;1.00;;;;;;5030858;28;20207;-74
2023/04/25 09:10:22;;;;;;;8.73;2.10;;;9.50;99.90;;;;;;5030837;28;20260;-74
2023/04/25 09:13:12;;;;;;;9.13;2.60;;;9.50;99.90;;;;;;5030660;28;20208;-74
2023/04/25 09:15:55;;;;;;;7.53;2.67;;;9.40;99.90;;;;;;5029471;28;20702;-74
2023/04/25 09:18:29;;;;;;;6.67;1.80;;;9.30;99.90;;;;;;5028992;28;20519;-74
2023/04/25 09:20:56;;;;;;;6.20;1.70;;;9.30;15.10;;;;;;5030452;28;20169;-74
2023/04/25 09:23:23;;;;;;;6.57;1.93;;;9.30;1.00;;;;;;5028826;28;20172;-75
2023/04/25 09:25:51;;;;;;;7.63;1.87;;;9.30;1.00;;;;;;5029167;28;20217;-74
2023/04/25 09:28:22;;;;;;;4.97;1.83;;;9.40;1.30;;;;;;5029553;28;20172;-75
2023/04/25 09:30:47;;;;;;;6.70;1.70;;;9.60;3.20;;;;;;5029258;28;20169;-74
2023/04/25 09:33:13;;;;;;;9.83;2.33;;;9.80;1.00;;;;;;5028733;28;20529;-75
2023/04/25 09:35:45;;;;;;;6.17;1.50;;;9.90;1.00;;;;;;5028292;28;20200;-74
2023/04/25 09:38:12;;;;;;;3.23;1.70;;;9.90;1.00;;;;;;5029082;28;20168;-74
2023/04/25 09:40:42;;;;;;;7.03;2.13;;;10.00;1.00;;;;;;5029012;28;20229;-74
2023/04/25 09:43:22;;;;;;;6.27;1.57;;;10.20;1.00;;;;;;5030712;28;20175;-75
2023/04/25 09:45:49;;;;;;;11.17;1.77;;;10.00;1.00;;;;;;5030134;28;20228;-75
2023/04/25 09:48:20;;;;;;;7.07;1.90;;;10.00;1.00;;;;;;5030203;28;20177;-75
2023/04/25 09:51:03;;;;;;;10.10;1.73;;;10.00;1.00;;;;;;5030179;28;20176;-75
2023/04/25 09:53:29;;;;;;;8.07;1.80;;;10.10;1.00;;;;;;5030038;28;20171;-75
2023/04/25 09:55:56;;;;;;;4.07;1.60;;;10.10;1.00;;;;;;5030217;28;20204;-75
2023/04/25 09:58:24;;;;;;;3.70;1.30;;;10.00;1.00;;;;;;5030290;28;20165;-74
2023/04/25 10:00:51;;;;;;;6.43;1.63;;;9.90;1.00;;;;;;5029968;28;20173;-74
2023/04/25 10:03:20;;;;;;;4.27;1.43;;;9.90;1.00;;;;;;5028907;28;20176;-74
2023/04/25 10:05:49;;;;;;;11.20;1.87;;;9.90;1.00;;;;;;5029878;28;20188;-74
2023/04/25 10:08:16;;;;;;;5.50;1.50;;;10.00;1.00;;;;;;5029993;28;20277;-74
2023/04/25 10:10:42;;;;;;;3.70;1.27;;;10.00;1.00;;;;;;5029972;28;20267;-74
2023/04/25 10:13:08;;;;;;;5.30;1.27;;;9.90;1.00;;;;;;5029816;28;20269;-74
2023/04/25 10:15:36;;;;;;;6.07;1.30;;;10.00;1.00;;;;;;5028382;28;20203;-75
2023/04/25 10:18:02;;;;;;;3.37;1.00;;;10.10;1.00;;;;;;5028441;28;20206;-74
2023/04/25 10:20:28;;;;;;;5.67;1.27;;;9.90;1.00;;;;;;5029994;28;20172;-74
2023/04/25 10:22:58;;;;;;;4.60;1.10;;;10.00;1.00;;;;;;5030005;28;20168;-75
2023/04/25 10:25:24;;;;;;;3.30;1.10;;;10.10;1.00;;;;;;5029859;28;20200;-74
2023/04/25 10:27:53;;;;;;;2.70;1.10;;;10.30;1.00;;;;;;5030095;28;20237;-75
2023/04/25 10:30:19;;;;;;;5.97;1.30;;;10.40;1.00;;;;;;5027184;28;20260;-73
2023/04/25 10:32:47;;;;;;;6.77;1.37;;;10.30;1.00;;;;;;5029602;28;20663;-73
2023/04/25 10:35:16;;;;;;;3.67;1.10;;;10.40;1.00;;;;;;5028157;28;20204;-73
2023/04/25 10:38:10;;;;;;;9.20;1.70;;;10.30;1.00;;;;;;5028203;28;20704;-73
2023/04/25 10:40:36;;;;;;;3.97;1.13;;;10.30;1.00;;;;;;5029689;28;20620;-73
2023/04/25 10:43:39;;;;;;;5.93;1.30;;;10.10;1.00;;;;;;5029660;28;20229;-74
2023/04/25 10:46:23;;;;;;;7.10;1.20;;;10.10;1.00;;;;;;5028074;28;20210;-73
2023/04/25 10:48:54;;;;;;;7.10;1.53;;;10.00;1.00;;;;;;5028098;28;20643;-73
2023/04/25 10:51:22;;;;;;;5.00;1.20;;;10.10;1.00;;;;;;5029631;28;20160;-75
2023/04/25 10:53:59;;;;;;;4.83;1.40;;;10.10;1.00;;;;;;5028156;28;20553;-73
2023/04/25 10:56:30;;;;;;;7.53;1.20;;;10.30;1.00;;;;;;5028558;28;20303;-74
2023/04/25 10:59:13;;;;;;;4.57;1.27;;;10.40;1.00;;;;;;5029537;28;20157;-75
2023/04/25 11:01:46;;;;;;;6.90;1.50;;;10.40;1.00;;;;;;5029558;28;20169;-74
2023/04/25 11:04:35;;;;;;;2.27;1.30;;;10.50;1.00;;;;;;5027958;28;20169;-73
2023/04/25 11:07:25;;;;;;;8.40;1.50;;;10.70;1.00;;;;;;5029484;28;20506;-74
2023/04/25 11:09:51;;;;;;;3.43;1.50;;;10.60;1.00;;;;;;5027980;28;20229;-74
2023/04/25 11:12:17;;;;;;;10.83;1.70;;;10.40;1.00;;;;;;5029008;28;20207;-74
2023/04/25 11:14:43;;;;;;;5.87;1.50;;;10.40;1.00;;;;;;5027640;28;20176;-74
2023/04/25 11:17:10;;;;;;;3.27;1.47;;;10.20;73.80;;;;;;5027871;28;20664;-74
2023/04/25 11:19:35;;;;;;;6.07;1.70;;;10.10;99.90;;;;;;5029099;28;20175;-74
2023/04/25 11:22:02;;;;;;;8.30;1.97;;;10.00;99.90;;;;;;5027804;28;20581;-74
2023/04/25 11:24:32;;;;;;;8.03;1.80;;;10.00;99.90;;;;;;5029248;28;20612;-74
2023/04/25 11:26:59;;;;;;;8.20;2.20;;;10.00;99.90;;;;;;5028886;28;20185;-74
2023/04/25 11:29:31;;;;;;;10.57;2.37;;;10.00;99.90;;;;;;5029157;28;20196;-74
2023/04/25 11:31:57;;;;;;;4.40;1.63;;;9.90;99.90;;;;;;5027605;28;20558;-74
2023/04/25 11:34:24;;;;;;;7.23;2.00;;;9.90;99.90;;;;;;5029552;28;20173;-74
2023/04/25 11:36:51;;;;;;;7.27;2.23;;;10.00;99.90;;;;;;5029329;28;20196;-74
2023/04/25 11:39:18;;;;;;;6.70;2.20;;;10.00;99.90;;;;;;5029479;28;20165;-74
2023/04/25 11:41:44;;;;;;;7.20;2.57;;;10.00;99.90;;;;;;5031136;28;20708;-75
2023/04/25 11:44:10;;;;;;;10.43;2.80;;;10.10;99.90;;;;;;5032719;28;20173;-74
2023/04/25 11:46:35;;;;;;;5.10;2.10;;;10.10;99.90;;;;;;5032397;28;20271;-74
2023/04/25 11:49:01;;;;;;;6.07;2.40;;;10.00;99.90;;;;;;5032505;28;20177;-74
2023/04/25 11:51:27;;;;;;;4.60;1.90;;;9.90;99.90;;;;;;5032122;28;20179;-74
2023/04/25 11:53:52;;;;;;;6.63;2.43;;;9.70;99.90;;;;;;5031022;28;20181;-74
2023/04/25 11:56:18;;;;;;;12.50;3.10;;;9.50;1.00;;;;;;5030642;28;20205;-74
2023/04/25 11:59:00;;;;;;;7.00;3.10;;;9.40;1.00;;;;;;5031990;28;20179;-75
2023/04/25 12:01:31;;;;;;;8.63;2.30;;;9.40;99.90;;;;;;5030744;28;20545;-75
2023/04/25 12:03:57;;;;;;;8.30;2.20;;;9.30;89.60;;;;;;5030576;28;20184;-76
2023/04/25 12:06:28;;;;;;;6.53;2.60;;;9.20;1.00;;;;;;5031092;28;20215;-74
2023/04/25 12:09:04;;;;;;;5.73;2.20;;;9.30;99.90;;;;;;5031794;28;20173;-74
2023/04/25 12:12:03;;;;;;;3.93;2.30;;;9.20;99.90;;;;;;5031541;28;20651;-74
2023/04/25 12:14:33;;;;;;;9.50;2.90;;;9.10;99.90;;;;;;5031661;28;20188;-75
2023/04/25 12:17:00;;;;;;;15.03;4.60;;;9.00;99.90;;;;;;5031675;28;20668;-74
2023/04/25 12:19:32;;;;;;;6.73;2.03;;;9.00;99.90;;;;;;5030372;28;20180;-74
2023/04/25 12:21:59;;;;;;;6.63;2.10;;;8.90;99.90;;;;;;5030441;28;20169;-74
2023/04/25 12:24:26;;;;;;;7.83;1.70;;;8.90;99.90;;;;;;5031676;28;20172;-74
2023/04/25 12:27:00;;;;;;;4.37;1.43;;;8.90;99.90;;;;;;5031648;28;20172;-75
2023/04/25 12:29:28;;;;;;;4.43;1.50;;;8.90;99.90;;;;;;5030175;28;20666;-73
2023/04/25 12:31:54;;;;;;;5.73;1.70;;;8.90;99.90;;;;;;5031562;28;20169;-75
2023/04/25 12:34:21;;;;;;;3.80;1.50;;;8.90;99.90;;;;;;5029869;28;20177;-75
2023/04/25 12:36:47;;;;;;;4.87;1.53;;;8.90;99.90;;;;;;5029950;28;20235;-75
2023/04/25 12:39:17;;;;;;;3.87;1.50;;;9.10;99.90;;;;;;5030104;28;20634;-75
2023/04/25 12:41:44;;;;;;;5.77;1.90;;;9.20;99.90;;;;;;5030107;28;20204;-74
2023/04/25 12:44:10;;;;;;;4.20;1.37;;;9.30;99.90;;;;;;5031500;28;20164;-75
2023/04/25 12:46:36;;;;;;;6.93;1.77;;;9.30;99.90;;;;;;5031490;28;20199;-75
2023/04/25 12:49:03;;;;;;;4.40;1.87;;;9.20;99.90;;;;;;5031234;28;20183;-74
2023/04/25 12:51:29;;;;;;;9.80;1.80;;;9.40;99.90;;;;;;5031495;28;20251;-74
2023/04/25 12:53:54;;;;;;;5.80;1.43;;;9.50;99.90;;;;;;5030175;28;20215;-75